Rocky Comfort, MO

8:14 PM CDT on August 29, 2014 (GMT -0500)
Rogers Municipal-Carter | Change Station
CLOSE
Current Station
Airport
Location: Rogers,
Elevation: 1358 ft
Nearby Weather Stations

Elev 1358 ft 36.37 °N, 94.11 °W | Updated 17 minutes ago

Clear
Clear
77 °F
Feels Like 77 °F
N
8
Wind Variable Wind from South

Today
High -- | Low -- °F
--% Chance of Precip.
Yesterday
High -- | Low -- °F
Precip. -- in
6:45 AM 7:48 PM
Waxing Crescent, 18% visible
Pressure 29.90 in
Visibility 10.0 miles
Clouds Clear
Dew Point 65 °F
Humidity 66%
Rainfall 0.00 in
Snow Depth Not available.
UV 0 out of 12
Pollen 10.30 out of 12
Air Quality Not available.
Flu Activity Not available.
METAR KROG 300057Z AUTO 17007KT 10SM CLR 25/18 A2994 RMK AO2 SLP123 T02500183

More Conditions Fewer Conditions

Pressure 29.90 in
Visibility 10.0 miles
Clouds Clear
Dew Point 65 °F
Humidity 66%
Rainfall 0.00 in
Snow Depth Not available.
UV 0 out of 12
Pollen 10.30 out of 12
Air Quality Not available.
Flu Activity Not available.
METAR KROG 300057Z AUTO 17007KT 10SM CLR 25/18 A2994 RMK AO2 SLP123 T02500183

More Conditions Fewer Conditions

10-Day Weather Forecast

Almanac

Astronomy

Aug. 29, 2014 Rise Set
Actual Time 6:45 AM CDT 7:48 PM CDT
Civil Twilight 6:18 AM CDT 8:15 PM CDT
Nautical Twilight 5:46 AM CDT 8:47 PM CDT
Astronomical Twilight 5:14 AM CDT 9:19 PM CDT
Moon 10:28 AM CDT (8/29) 9:54 PM CDT (8/29)
Length of Visible Light 13h 56m
Length of Day
13h 03m
Tomorrow will be 2m 13s shorter.
Waxing Crescent, 18% of the Moon is Illuminated
Today
Waxing Crescent
Sep 2
First Quarter
Sep 8
Full
Sep 15
Last Quarter
Sep 24
New

Today's Extremes

State Highs State Lows

Community

WunderPhotos

Upload Photos

1,748,395 photos uploaded!

Nearby

Snow Depth

Station Depth Elevation
No new snow has been reported.

Earthquake Activity

City Distance Mag. Time & Date
No recent earthquake activity has been reported nearby.
Minimum magnitude displayed is 2.5.

Coastal Water Temperatures

Place Temperature
No Stations Reporting

Nearby Weather Stations